Aurilandia, Brazil
Current Conditions -  °F | °C
As of 11:00 PM on Tuesday 21 Oct 2014 (Local Time) from SBGO Reporting Station
Clear Clear  
Wind Chill: 81°   Ceiling: Unl
Heat Index: 81°   Visibility: 6mi
Dew Point: 55°   Wind: 7mph
Humidity: 42%   Direction: 100°E
Pressure: 29.97"   Gusts: NA
Location:  16.68°S, 50.46°W
Report Text: SBGO 220100Z 10006KT CAVOK 27/13 Q1015
Loading
Personal Weather Stations






























Interactive Weather Map
Tropical Storm Tracking
New forecast layout! Learn more

10-Day Weather Forecast

Advertisements
Track Severe Weather on mobile